createdAt,value
2022-08-28T00:03:15.504Z,100043.40
2022-08-28T00:08:21.263Z,100050.20
2022-08-28T00:13:26.065Z,100047.60
2022-08-28T00:18:31.445Z,100047.60
2022-08-28T00:23:42.751Z,100042.80
2022-08-28T00:28:46.253Z,100046.20
2022-08-28T00:33:49.223Z,100042.60
2022-08-28T00:38:52.211Z,100037.60
2022-08-28T00:44:08.477Z,100031.80
2022-08-28T00:49:15.238Z,100031.80
2022-08-28T00:54:19.480Z,100021.80
2022-08-28T00:59:28.021Z,100021.80
2022-08-28T01:04:33.048Z,100027.00
2022-08-28T01:09:44.882Z,100023.20
2022-08-28T01:14:53.631Z,100023.80
2022-08-28T01:20:03.094Z,100020.20
2022-08-28T01:25:14.373Z,100020.20
2022-08-28T01:30:21.767Z,100020.40
2022-08-28T01:35:31.258Z,100011.20
2022-08-28T01:40:42.957Z,100018.80
2022-08-28T01:45:53.047Z,100024.40
2022-08-28T01:50:56.594Z,100028.20
2022-08-28T01:56:03.041Z,100027.20
2022-08-28T02:01:19.035Z,100024.20
2022-08-28T02:06:22.478Z,100029.40
2022-08-28T02:11:26.403Z,100032.60
2022-08-28T02:16:29.617Z,100027.40
2022-08-28T02:21:32.723Z,100026.40
2022-08-28T02:26:35.707Z,100021.60
2022-08-28T02:31:39.018Z,100017.40
2022-08-28T02:36:42.723Z,100014.60
2022-08-28T02:41:45.711Z,100012.20
2022-08-28T02:46:48.715Z,100011.80
2022-08-28T02:51:51.831Z,100016.60
2022-08-28T02:56:56.302Z,100016.00
2022-08-28T03:01:59.272Z,100016.60
2022-08-28T03:07:02.978Z,100016.80
2022-08-28T03:12:06.372Z,100014.80
2022-08-28T03:17:09.608Z,100013.60
2022-08-28T03:22:13.063Z,100008.80
2022-08-28T03:27:16.044Z,100013.20
2022-08-28T03:32:19.222Z,100007.60
2022-08-28T03:37:22.128Z,100008.40
2022-08-28T03:42:25.208Z,100006.20
2022-08-28T03:47:28.459Z,100006.00
2022-08-28T03:52:32.737Z,100007.20
2022-08-28T03:57:37.060Z,100006.40
2022-08-28T04:02:42.389Z,100010.40
2022-08-28T04:07:45.903Z,100010.80
2022-08-28T04:12:48.997Z,100016.00
2022-08-28T04:17:51.978Z,100024.40
2022-08-28T04:22:55.590Z,100022.80
2022-08-28T04:27:58.959Z,100021.80
2022-08-28T04:33:02.466Z,100013.60
2022-08-28T04:38:05.765Z,100012.00
2022-08-28T04:43:10.097Z,100010.20
2022-08-28T04:48:14.720Z,100000.80
2022-08-28T04:53:20.798Z,99998.20
2022-08-28T04:58:24.439Z,99996.60
2022-08-28T05:03:27.513Z,99993.00
2022-08-28T05:08:31.469Z,99992.40
2022-08-28T05:13:34.473Z,99993.00
2022-08-28T05:18:38.159Z,99991.00
2022-08-28T05:23:42.973Z,99993.80
2022-08-28T05:28:49.988Z,100000.40
2022-08-28T05:33:53.698Z,100002.40
2022-08-28T05:38:58.704Z,100000.00
2022-08-28T05:44:06.404Z,99993.60
2022-08-28T05:49:10.564Z,99991.20
2022-08-28T05:54:15.733Z,99994.00
2022-08-28T05:59:18.731Z,99995.00
2022-08-28T06:04:27.709Z,99993.00
2022-08-28T06:09:30.934Z,99995.40
2022-08-28T06:14:35.329Z,100002.40
2022-08-28T06:19:41.560Z,100007.40
2022-08-28T06:24:44.712Z,100006.40
2022-08-28T06:29:47.776Z,100004.80
2022-08-28T06:34:50.786Z,100012.60
2022-08-28T06:39:53.717Z,100017.60
2022-08-28T06:44:56.899Z,100016.80
2022-08-28T06:49:59.874Z,100011.40
2022-08-28T06:55:02.993Z,100020.60
2022-08-28T07:00:08.181Z,100029.60
2022-08-28T07:05:11.202Z,100024.60
2022-08-28T07:10:14.214Z,100029.80
2022-08-28T07:15:18.807Z,100032.60
2022-08-28T07:20:22.722Z,100038.20
2022-08-28T07:25:26.650Z,100037.60
2022-08-28T07:30:29.634Z,100039.00
2022-08-28T07:35:32.936Z,100038.80
2022-08-28T07:40:35.969Z,100039.60
2022-08-28T07:45:39.056Z,100038.40
2022-08-28T07:50:41.952Z,100034.60
2022-08-28T07:55:45.585Z,100032.60
2022-08-28T08:00:48.544Z,100030.60
2022-08-28T08:05:57.926Z,100037.60
2022-08-28T08:11:11.227Z,100034.40
2022-08-28T08:16:23.888Z,100028.80
2022-08-28T08:21:30.319Z,100030.60
2022-08-28T08:26:34.485Z,100031.60
2022-08-28T08:31:37.438Z,100034.60
2022-08-28T08:36:45.622Z,100032.20
2022-08-28T08:41:53.491Z,100036.80
2022-08-28T08:47:16.301Z,100031.40
2022-08-28T08:52:31.201Z,100028.60
2022-08-28T08:57:38.482Z,100026.00
2022-08-28T09:03:04.787Z,100030.80
2022-08-28T09:08:25.321Z,100037.80
2022-08-28T09:13:52.403Z,100035.00
2022-08-28T09:18:59.422Z,100038.20
2022-08-28T09:24:10.873Z,100039.80
2022-08-28T09:29:23.680Z,100040.60
2022-08-28T09:34:38.561Z,100039.00
2022-08-28T09:39:45.587Z,100032.00
2022-08-28T09:45:13.859Z,100036.20
2022-08-28T09:50:39.575Z,100033.60
2022-08-28T09:56:11.143Z,100029.80
2022-08-28T10:01:44.692Z,100023.40
2022-08-28T10:07:06.284Z,100027.00
2022-08-28T10:12:30.875Z,100020.20
2022-08-28T10:18:21.603Z,100029.60
2022-08-28T10:23:52.287Z,100033.20
2022-08-28T10:29:16.859Z,100023.80
2022-08-28T10:34:37.598Z,100019.00
2022-08-28T10:39:55.512Z,100020.20
2022-08-28T10:45:07.171Z,100022.60
2022-08-28T10:50:22.138Z,100020.20
2022-08-28T10:55:37.863Z,100018.00
2022-08-28T11:00:43.942Z,100021.60
2022-08-28T11:06:01.899Z,100019.00
2022-08-28T11:11:12.363Z,100020.80
2022-08-28T11:16:38.981Z,100018.40
2022-08-28T11:21:53.333Z,100017.80
2022-08-28T11:27:21.512Z,100013.20
2022-08-28T11:32:51.771Z,100008.00
2022-08-28T11:37:56.453Z,100010.20
2022-08-28T11:43:14.742Z,100010.40
2022-08-28T11:48:28.399Z,100013.40
2022-08-28T11:53:46.132Z,100007.40
2022-08-28T11:59:12.771Z,100001.40
2022-08-28T12:04:19.800Z,100015.60
2022-08-28T12:09:52.954Z,100014.60
2022-08-28T12:14:55.900Z,100010.80
2022-08-28T12:20:11.754Z,100006.20
2022-08-28T12:25:25.131Z,100015.40
2022-08-28T12:30:33.769Z,100016.60
2022-08-28T12:35:37.184Z,100015.40
2022-08-28T12:40:40.120Z,100014.00
2022-08-28T12:45:50.662Z,100011.80
2022-08-28T12:51:21.248Z,100006.40
2022-08-28T12:56:30.169Z,100000.40
2022-08-28T13:01:34.323Z,100006.60
2022-08-28T13:06:39.693Z,100001.40
2022-08-28T13:11:49.313Z,100006.00
2022-08-28T13:16:52.433Z,100000.00
2022-08-28T13:22:06.284Z,99996.40
2022-08-28T13:27:20.428Z,99995.00
2022-08-28T13:32:23.902Z,99991.80
2022-08-28T13:37:51.010Z,99990.80
2022-08-28T13:43:03.079Z,99991.40
2022-08-28T13:48:06.425Z,99990.60
2022-08-28T13:53:09.563Z,99989.60
2022-08-28T13:58:13.976Z,99984.80
2022-08-28T14:03:35.922Z,99986.00
2022-08-28T14:08:44.287Z,99977.20
2022-08-28T14:13:55.713Z,99976.80
2022-08-28T14:19:04.740Z,99973.60
2022-08-28T14:24:08.778Z,99979.20
2022-08-28T14:29:14.065Z,99974.60
2022-08-28T14:34:21.319Z,99967.40
2022-08-28T14:39:28.136Z,99969.00
2022-08-28T14:44:31.143Z,99970.80
2022-08-28T14:49:34.217Z,99966.40
2022-08-28T14:54:38.643Z,99966.80
2022-08-28T14:59:41.714Z,99971.00
2022-08-28T15:04:44.627Z,99974.00
2022-08-28T15:09:47.561Z,99971.40
2022-08-28T15:14:54.911Z,99970.80
2022-08-28T15:20:01.071Z,99974.20
2022-08-28T15:25:06.081Z,99975.40
2022-08-28T15:30:10.247Z,99976.00
2022-08-28T15:35:13.231Z,99970.60
2022-08-28T15:40:34.915Z,99968.60
2022-08-28T15:45:40.620Z,99964.60
2022-08-28T15:50:44.913Z,99966.20
2022-08-28T15:55:47.880Z,99959.00
2022-08-28T16:00:50.992Z,99976.80
2022-08-28T16:05:54.589Z,99985.20
2022-08-28T16:10:57.674Z,100002.80
2022-08-28T16:16:00.803Z,100013.40
2022-08-28T16:21:05.247Z,100035.60
2022-08-28T16:26:10.358Z,100045.20
2022-08-28T16:31:19.199Z,100068.80
2022-08-28T16:36:25.326Z,100085.40
2022-08-28T16:41:28.685Z,100094.80
2022-08-28T16:46:32.792Z,100106.20
2022-08-28T16:51:35.725Z,100105.00
2022-08-28T16:56:40.168Z,100100.80
2022-08-28T17:01:43.497Z,100088.60
2022-08-28T17:06:46.616Z,100078.00
2022-08-28T17:11:52.207Z,100065.00
2022-08-28T17:16:55.434Z,100061.20
2022-08-28T17:22:16.911Z,100072.40
2022-08-28T17:27:22.584Z,100067.20
2022-08-28T17:32:25.958Z,100075.60
2022-08-28T17:37:29.459Z,100081.40
2022-08-28T17:42:32.426Z,100080.20
2022-08-28T17:47:35.495Z,100083.20
2022-08-28T17:52:39.050Z,100089.60
2022-08-28T17:57:42.659Z,100091.80
2022-08-28T18:02:46.917Z,100105.40
2022-08-28T18:07:49.933Z,100114.20
2022-08-28T18:12:54.197Z,100124.80
2022-08-28T18:17:57.967Z,100120.00
2022-08-28T18:23:01.616Z,100121.80
2022-08-28T18:28:06.000Z,100127.00
2022-08-28T18:33:09.854Z,100133.60
2022-08-28T18:38:15.091Z,100135.20
2022-08-28T18:43:20.366Z,100129.60
2022-08-28T18:48:24.403Z,100126.80
2022-08-28T18:53:29.519Z,100132.80
2022-08-28T18:58:33.034Z,100131.00
2022-08-28T19:03:37.844Z,100134.20
2022-08-28T19:08:41.531Z,100133.60
2022-08-28T19:13:44.626Z,100130.00
2022-08-28T19:18:47.907Z,100121.80
2022-08-28T19:23:56.004Z,100124.20
2022-08-28T19:29:00.171Z,100118.60
2022-08-28T19:34:03.295Z,100122.20
2022-08-28T19:39:07.423Z,100113.80
2022-08-28T19:44:11.374Z,100115.60
2022-08-28T19:49:14.529Z,100113.20
2022-08-28T19:54:17.523Z,100114.60
2022-08-28T19:59:22.939Z,100123.20
2022-08-28T20:04:31.742Z,100123.40
2022-08-28T20:09:34.958Z,100128.20
2022-08-28T20:14:41.542Z,100131.00
2022-08-28T20:19:48.799Z,100133.40
2022-08-28T20:24:51.840Z,100138.40
2022-08-28T20:29:54.803Z,100149.20
2022-08-28T20:34:58.685Z,100149.60
2022-08-28T20:40:03.642Z,100157.60
2022-08-28T20:45:10.747Z,100161.00
2022-08-28T20:50:15.837Z,100154.20
2022-08-28T20:55:19.196Z,100163.00
2022-08-28T21:00:22.343Z,100172.00
2022-08-28T21:05:25.914Z,100175.40
2022-08-28T21:10:29.048Z,100181.80
2022-08-28T21:15:32.341Z,100193.60
2022-08-28T21:20:35.422Z,100214.20
2022-08-28T21:25:41.485Z,100234.60
2022-08-28T21:30:44.428Z,100256.80
2022-08-28T21:35:47.601Z,100264.80
2022-08-28T21:40:50.705Z,100281.00
2022-08-28T21:46:04.926Z,100289.00
2022-08-28T21:51:11.914Z,100295.80
2022-08-28T21:56:24.537Z,100309.40
2022-08-28T22:01:27.829Z,100310.40
2022-08-28T22:06:31.208Z,100310.60
2022-08-28T22:11:35.144Z,100303.20
2022-08-28T22:16:38.278Z,100287.00
2022-08-28T22:21:59.690Z,100276.60
2022-08-28T22:27:02.630Z,100284.80
2022-08-28T22:32:08.349Z,100268.40
2022-08-28T22:37:12.589Z,100251.20
2022-08-28T22:42:15.565Z,100232.40
2022-08-28T22:47:18.823Z,100223.80
2022-08-28T22:52:22.099Z,100211.80
2022-08-28T22:57:25.215Z,100202.20
2022-08-28T23:02:28.922Z,100188.00
2022-08-28T23:07:32.130Z,100182.20
2022-08-28T23:12:35.241Z,100186.60
2022-08-28T23:17:38.278Z,100197.40
2022-08-28T23:22:44.278Z,100203.00
2022-08-28T23:27:51.487Z,100205.00
2022-08-28T23:32:55.582Z,100211.40
2022-08-28T23:37:58.596Z,100226.40
2022-08-28T23:43:02.950Z,100233.60
2022-08-28T23:48:06.807Z,100229.80
2022-08-28T23:53:11.389Z,100228.20
2022-08-28T23:58:14.487Z,100241.20
